Terminal Aerodrome Forecast
Issued by NWS Tampa Bay Area, FL

Home | Current Version | Previous Version | Text Only | Print | Product List | Glossary On
Versions: 1 2 3 4 5 6 7 8 9 10 11 12 13 14 15 16 17 18 19 20 21 22 23 24 25 26 27 28 29
267
FTUS42 KTBW 302333
TAFTPA
TAF
KTPA 302333Z 3100/3124 34006KT P6SM VCTS FEW025CB BKN250
     FM310200 09005KT P6SM VCTS SCT035CB BKN100
     FM310400 VRB04KT P6SM SCT035 BKN250
     FM311500 15006KT P6SM SCT025 BKN250
     FM311800 22009KT P6SM VCTS SCT025CB BKN250=

USA.gov is the U.S. government's official web portal to all federal, state and local government web resources and services.